Latest Coastal Weather Observations for Bougainville Reef

IDQ60701

Issued at 7:12 am EST Monday 15 February 2016 (issued every 10 minutes, with the page automatically refreshed every 10 minutes)

About coastal observations | Map of coastal stations | Coastal observations for QLD | Marine services | Other Formats
Station Details ID: 200840 Name: BOUGAINVILLE REEF Lat: -15.49 Lon: 147.12 Height: 0.0 m
Data from the previous 72 hours. | See also: Recent months for locations in Queensland
Date/Time
EST
Temp

°C
Wind Pressure Rain
since 9am
mm
Weather Cloud Vis
km
Sea
Height
m
Swell
Dir
 
Speed
knots
Gust
knots
hPa Trend Height
m
Period
s
Dir
15/07:00am 28.6 WNW 10 13 1009.2 - - - - - - - - -
15/06:30am 28.5 WNW 9 11 1009.1 - - - - - - - - -
15/06:00am 28.4 WNW 10 11 1008.7 - - - - - - - - -
15/05:30am 28.4 WNW 10 12 1008.4 - - - - - - - - -
15/05:00am 28.3 CALM 0 2 1007.8 - - - - - - - - -
15/04:30am 28.1 CALM 0 2 1007.7 - - - - - - - - -
15/04:00am 28.1 CALM 0 2 1007.6 - - - - - - - - -
15/03:30am 28.1 CALM 0 2 1007.5 - - - - - - - - -
15/03:00am 28.2 WNW 1 1 1007.5 - - - - - - - - -
15/02:30am 28.1 CALM 0 4 1007.6 - - - - - - - - -
15/02:00am 28.2 WSW 2 2 1007.9 - - - - - - - - -
15/01:30am 28.3 WSW 4 6 1008.2 - - - - - - - - -
15/01:00am 28.2 CALM 0 5 1008.6 - - - - - - - - -
15/12:30am 28.2 CALM 0 0 1008.8 - - - - - - - - -
15/12:00am 28.5 SSE 4 5 1008.8 - - - - - - - - -
 
Date/Time
EST
Temp

°C
Wind Pressure Rain
since 9am
mm
Weather Cloud Vis
km
Sea
Height
m
Swell
Dir
 
Speed
knots
Gust
knots
hPa Trend Height
m
Period
s
Dir
14/11:30pm 28.6 E 5 7 1009.0 - - - - - - - - -
14/11:00pm 28.6 ENE 8 10 1008.9 - - - - - - - - -
14/10:30pm 28.7 ENE 5 7 1009.5 - - - - - - - - -
14/10:00pm 28.7 CALM 0 4 1009.6 - - - - - - - - -
14/09:30pm 28.7 CALM 0 0 1009.6 - - - - - - - - -
14/09:00pm 28.7 CALM 0 0 1009.3 - - - - - - - - -
14/08:30pm 28.9 CALM 0 0 1009.0 - - - - - - - - -
14/08:00pm 28.8 CALM 0 0 1008.5 - - - - - - - - -
14/07:30pm 28.8 CALM 0 0 1008.2 - - - - - - - - -
14/07:00pm 28.9 S 2 3 1007.4 - - - - - - - - -
14/06:30pm 29.0 S 3 4 1007.3 - - - - - - - - -
14/06:00pm 31.4 SW 3 5 1006.8 - - - - - - - - -
14/05:30pm 31.0 SW 3 5 1006.5 - - - - - - - - -
14/05:00pm 30.2 SW 5 6 1006.3 - - - - - - - - -
14/04:30pm 30.2 SW 5 7 1006.2 - - - - - - - - -
14/04:00pm 29.3 SW 6 8 1006.1 - - - - - - - - -
14/03:30pm 29.1 SW 8 10 1006.1 - - - - - - - - -
14/03:00pm 29.0 SSW 7 9 1006.1 - - - - - - - - -
14/02:30pm 29.1 SW 6 8 1006.2 - - - - - - - - -
14/02:00pm 29.0 WSW 7 8 1006.4 - - - - - - - - -
14/01:30pm 28.9 WSW 6 8 1006.5 - - - - - - - - -
14/01:00pm 28.8 SW 6 10 1007.1 - - - - - - - - -
14/12:30pm 28.9 SSW 5 6 1007.3 - - - - - - - - -
14/12:00pm 28.9 SSW 6 7 1007.7 - - - - - - - - -
14/11:30am 28.8 SSW 5 7 1008.0 - - - - - - - - -
14/11:00am 28.8 SSW 6 8 1008.2 - - - - - - - - -
14/10:30am 28.7 SSW 5 6 1008.4 - - - - - - - - -
14/10:00am 29.1 S 6 7 1008.8 - - - - - - - - -
14/09:30am 29.1 S 5 7 1008.8 - - - - - - - - -
14/09:00am 28.9 S 7 8 1008.7 - - - - - - - - -
14/08:30am 28.8 SSW 7 9 1008.6 - - - - - - - - -
14/08:00am 28.8 SSW 6 9 1008.3 - - - - - - - - -
14/07:30am 28.5 SW 7 8 1008.0 - - - - - - - - -
14/07:00am 28.5 SSW 7 9 1007.6 - - - - - - - - -
14/06:30am 28.4 SSW 6 8 1007.4 - - - - - - - - -
14/06:00am 28.3 SSW 5 8 1007.1 - - - - - - - - -
14/05:30am 28.2 SW 2 6 1006.9 - - - - - - - - -
14/05:00am 28.3 CALM 0 2 1006.6 - - - - - - - - -
14/04:30am 28.3 S 1 2 1006.6 - - - - - - - - -
14/04:00am 28.3 CALM 0 2 1006.5 - - - - - - - - -
14/03:30am 28.4 S 1 3 1006.5 - - - - - - - - -
14/03:00am 28.4 S 1 3 1006.5 - - - - - - - - -
14/02:30am 28.4 CALM 0 2 1006.5 - - - - - - - - -
14/02:00am 28.7 SSE 1 3 1006.8 - - - - - - - - -
14/01:30am 28.8 SSE 1 4 1007.0 - - - - - - - - -
14/01:00am 28.9 ESE 1 3 1007.2 - - - - - - - - -
14/12:30am 28.9 ESE 9 11 1007.3 - - - - - - - - -
14/12:00am 28.8 SE 10 12 1007.7 - - - - - - - - -
 
Date/Time
EST
Temp

°C
Wind Pressure Rain
since 9am
mm
Weather Cloud Vis
km
Sea
Height
m
Swell
Dir
 
Speed
knots
Gust
knots
hPa Trend Height
m
Period
s
Dir
13/11:30pm 28.9 SE 11 13 1007.9 - - - - - - - - -
13/11:00pm 28.9 SE 13 14 1008.3 - - - - - - - - -
13/10:30pm 28.9 SSE 15 17 1008.5 - - - - - - - - -
13/10:00pm 28.9 SSE 16 19 1008.4 - - - - - - - - -
13/09:30pm 29.1 S 17 20 1008.3 - - - - - - - - -
13/09:00pm 29.1 S 17 20 1007.9 - - - - - - - - -
13/08:30pm 29.3 S 17 19 1007.6 - - - - - - - - -
13/08:00pm 29.3 S 16 19 1007.3 - - - - - - - - -
13/07:30pm 29.2 S 16 20 1007.0 - - - - - - - - -
13/07:00pm 29.3 S 16 19 1006.7 - - - - - - - - -
13/06:30pm 29.2 S 15 18 1006.4 - - - - - - - - -
13/06:00pm 29.5 S 14 16 1006.2 - - - - - - - - -
13/05:30pm 29.4 S 14 17 1006.0 - - - - - - - - -
13/05:00pm 29.2 S 16 17 1005.6 - - - - - - - - -
13/04:30pm 29.3 S 16 19 1005.4 - - - - - - - - -
13/04:00pm 29.3 S 16 18 1005.2 - - - - - - - - -
13/03:30pm 29.3 S 16 19 1005.3 - - - - - - - - -
13/03:00pm 29.3 S 16 17 1005.5 - - - - - - - - -
13/02:30pm 29.2 S 14 17 1005.7 - - - - - - - - -
13/02:00pm 29.2 S 14 17 1006.0 - - - - - - - - -
13/01:30pm 29.1 S 14 17 1006.3 - - - - - - - - -
13/01:00pm 29.2 S 14 16 1006.8 - - - - - - - - -
13/12:30pm 29.1 S 15 17 1006.9 - - - - - - - - -
13/12:00pm 29.1 SSE 15 18 1007.5 - - - - - - - - -
13/11:30am 29.1 SSE 15 18 1007.6 - - - - - - - - -
13/11:00am 29.1 SSE 15 18 1008.0 - - - - - - - - -
13/10:30am 29.3 SSE 14 16 1008.2 - - - - - - - - -
13/10:00am 29.3 SSE 14 17 1008.4 - - - - - - - - -
13/09:30am 29.2 SSE 14 16 1008.6 - - - - - - - - -
13/09:00am 29.2 SSE 15 17 1008.5 - - - - - - - - -
13/08:30am 29.1 SSE 17 19 1008.2 - - - - - - - - -
13/08:00am 29.1 SSE 17 19 1008.0 - - - - - - - - -
13/07:30am 29.0 SSE 16 19 1007.9 - - - - - - - - -
13/07:00am 28.8 SSE 18 21 1007.3 - - - - - - - - -
13/06:30am 28.7 SSE 18 21 1007.0 - - - - - - - - -
13/06:00am 28.7 S 15 20 1006.5 - - - - - - - - -
13/05:30am 28.7 S 15 19 1006.2 - - - - - - - - -
13/05:00am 28.6 S 16 19 1005.8 - - - - - - - - -
13/04:30am 28.5 S 17 20 1005.7 - - - - - - - - -
13/04:00am 28.5 SSE 16 18 1005.9 - - - - - - - - -
13/03:30am 28.6 SSE 14 17 1006.0 - - - - - - - - -
13/03:00am 28.6 SSE 14 15 1005.9 - - - - - - - - -
13/02:30am 28.5 SSE 13 15 1005.9 - - - - - - - - -
13/02:00am 28.7 SSE 17 19 1006.1 - - - - - - - - -
13/01:30am 28.7 SSE 16 19 1006.3 - - - - - - - - -
13/01:00am 28.7 SSE 16 18 1006.6 - - - - - - - - -
13/12:30am 28.9 SE 18 20 1006.7 - - - - - - - - -
13/12:00am 28.7 SSE 17 21 1007.3 - - - - - - - - -
 
Date/Time
EST
Temp

°C
Wind Pressure Rain
since 9am
mm
Weather Cloud Vis
km
Sea
Height
m
Swell
Dir
 
Speed
knots
Gust
knots
hPa Trend Height
m
Period
s
Dir
12/11:30pm 28.8 SSE 18 20 1007.5 - - - - - - - - -
12/11:00pm 28.9 SSE 16 19 1007.9 - - - - - - - - -
12/10:30pm 28.9 SE 17 19 1007.9 - - - - - - - - -
12/10:00pm 28.8 SSE 18 21 1007.9 - - - - - - - - -
12/09:30pm 29.0 SSE 19 22 1007.7 - - - - - - - - -
12/09:00pm 29.0 SSE 19 23 1007.7 - - - - - - - - -
12/08:30pm 28.9 SSE 20 22 1007.6 - - - - - - - - -
12/08:00pm 29.0 S 20 22 1007.3 - - - - - - - - -
12/07:30pm 29.1 SSE 19 21 1007.1 - - - - - - - - -
12/07:00pm 29.1 SSE 18 21 1006.7 - - - - - - - - -
12/06:30pm 29.2 S 18 21 1006.7 - - - - - - - - -
12/06:00pm 29.1 S 18 19 1006.4 - - - - - - - - -
12/05:30pm 29.3 S 16 18 1006.3 - - - - - - - - -
12/05:00pm 29.2 S 17 18 1005.9 - - - - - - - - -
12/04:30pm 29.1 S 17 21 1005.6 - - - - - - - - -
12/04:00pm 29.1 S 18 20 1005.4 - - - - - - - - -
12/03:30pm 29.2 S 18 21 1005.5 - - - - - - - - -
12/03:00pm 29.2 S 17 22 1005.7 - - - - - - - - -
12/02:30pm 29.3 S 17 19 1005.9 - - - - - - - - -
12/02:00pm 29.1 S 18 20 1006.2 - - - - - - - - -
12/01:30pm 29.2 S 17 20 1006.3 - - - - - - - - -
12/01:00pm 29.2 S 16 16 1006.9 - - - - - - - - -
12/12:30pm 29.3 S 16 18 1007.1 - - - - - - - - -
12/12:00pm 29.2 S 16 19 1007.8 - - - - - - - - -
12/11:30am 29.2 S 16 19 1008.1 - - - - - - - - -
12/11:00am 29.3 S 15 18 1008.6 - - - - - - - - -
12/10:30am 29.1 S 14 17 1008.6 - - - - - - - - -
12/10:00am 29.3 S 16 18 1008.9 - - - - - - - - -
12/09:30am 29.1 S 14 16 1009.0 - - - - - - - - -
12/09:00am 29.4 S 15 18 1008.7 - - - - - - - - -
12/08:30am 29.2 S 16 17 1008.7 - - - - - - - - -
12/08:00am 29.2 S 13 15 1008.4 - - - - - - - - -
12/07:30am 29.0 S 13 15 1008.5 - - - - - - - - -

Other Formats:

Comma delimited format used in spreadsheet applications
http://www.bom.gov.au/fwo/IDQ60701/IDQ60701.95288.axf

JavaScript Object Notation format (JSON) in row-major order
http://www.bom.gov.au/fwo/IDQ60701/IDQ60701.95288.json